createdAt,value
2017-06-16T00:01:19.711Z,67.07
2017-06-16T00:03:21.813Z,66.52
2017-06-16T00:05:23.675Z,66.87
2017-06-16T00:07:25.915Z,66.91
2017-06-16T00:09:27.651Z,67.25
2017-06-16T00:11:29.994Z,67.68
2017-06-16T00:13:31.847Z,67.54
2017-06-16T00:15:33.726Z,67.74
2017-06-16T00:17:35.476Z,67.83
2017-06-16T00:19:37.257Z,67.93
2017-06-16T00:21:39.637Z,68.41
2017-06-16T00:23:41.496Z,67.93
2017-06-16T00:25:43.472Z,68.21
2017-06-16T00:27:45.255Z,68.51
2017-06-16T00:29:47.172Z,68.79
2017-06-16T00:31:49.612Z,69.34
2017-06-16T00:33:51.773Z,69.62
2017-06-16T00:35:54.040Z,69.91
2017-06-16T00:37:55.976Z,69.43
2017-06-16T00:39:57.861Z,69.72
2017-06-16T00:41:59.625Z,69.62
2017-06-16T00:44:01.394Z,69.46
2017-06-16T00:46:03.208Z,69.53
2017-06-16T00:48:05.638Z,69.62
2017-06-16T00:50:07.418Z,69.62
2017-06-16T00:52:09.375Z,69.91
2017-06-16T00:54:11.229Z,70.20
2017-06-16T00:56:13.053Z,70.68
2017-06-16T00:58:15.005Z,70.97
2017-06-16T01:00:16.803Z,70.78
2017-06-16T01:02:18.610Z,71.06
2017-06-16T01:04:20.404Z,70.87
2017-06-16T01:06:22.279Z,71.16
2017-06-16T01:08:24.127Z,71.16
2017-06-16T01:10:25.941Z,71.35
2017-06-16T01:12:27.910Z,71.93
2017-06-16T01:14:29.839Z,71.83
2017-06-16T01:16:31.654Z,72.08
2017-06-16T01:18:33.440Z,72.37
2017-06-16T01:20:35.227Z,72.66
2017-06-16T01:22:37.035Z,72.85
2017-06-16T01:24:39.154Z,72.37
2017-06-16T01:26:41.140Z,72.75
2017-06-16T01:28:42.978Z,72.75
2017-06-16T01:30:45.304Z,72.79
2017-06-16T01:32:47.132Z,72.95
2017-06-16T01:34:49.486Z,72.79
2017-06-16T01:36:51.930Z,72.85
2017-06-16T01:38:53.703Z,72.89
2017-06-16T01:40:56.178Z,73.37
2017-06-16T01:42:57.942Z,72.41
2017-06-16T01:44:59.799Z,73.18
2017-06-16T01:47:01.634Z,73.37
2017-06-16T01:49:03.718Z,73.46
2017-06-16T01:51:05.483Z,73.27
2017-06-16T01:53:07.655Z,73.91
2017-06-16T01:55:09.459Z,73.33
2017-06-16T01:57:11.595Z,73.08
2017-06-16T01:59:13.539Z,73.91
2017-06-16T02:01:15.329Z,73.62
2017-06-16T02:03:17.546Z,74.29
2017-06-16T02:05:19.692Z,74.39
2017-06-16T02:07:21.995Z,74.29
2017-06-16T02:09:23.689Z,74.10
2017-06-16T02:11:26.151Z,74.19
2017-06-16T02:13:28.074Z,74.68
2017-06-16T02:15:30.427Z,75.25
2017-06-16T02:17:32.251Z,75.63
2017-06-16T02:19:34.011Z,75.63
2017-06-16T02:21:35.784Z,74.87
2017-06-16T02:23:37.735Z,74.96
2017-06-16T02:25:40.816Z,75.63
2017-06-16T02:27:42.637Z,75.21
2017-06-16T02:29:44.399Z,75.40
2017-06-16T02:31:46.587Z,75.89
2017-06-16T02:33:48.770Z,75.89
2017-06-16T02:35:50.490Z,75.89
2017-06-16T02:37:52.820Z,75.98
2017-06-16T02:39:54.632Z,75.70
2017-06-16T02:41:56.964Z,76.17
2017-06-16T02:43:58.829Z,75.89
2017-06-16T02:46:00.881Z,76.07
2017-06-16T02:48:02.862Z,76.37
2017-06-16T02:50:04.596Z,75.89
2017-06-16T02:52:06.630Z,76.27
2017-06-16T02:54:08.454Z,76.37
2017-06-16T02:56:11.210Z,76.07
2017-06-16T02:58:12.980Z,76.17
2017-06-16T03:00:15.185Z,76.94
2017-06-16T03:02:16.971Z,77.71
2017-06-16T03:04:18.840Z,77.90
2017-06-16T03:06:21.059Z,78.00
2017-06-16T03:08:22.892Z,78.00
2017-06-16T03:10:25.189Z,78.57
2017-06-16T03:12:27.321Z,78.72
2017-06-16T03:14:29.719Z,78.44
2017-06-16T03:16:31.980Z,78.63
2017-06-16T03:18:33.837Z,78.77
2017-06-16T03:20:35.702Z,78.86
2017-06-16T03:22:37.486Z,78.96
2017-06-16T03:24:39.659Z,79.14
2017-06-16T03:26:41.988Z,78.96
2017-06-16T03:28:43.802Z,79.05
2017-06-16T03:30:45.642Z,79.53
2017-06-16T03:32:47.353Z,79.63
2017-06-16T03:34:49.263Z,79.63
2017-06-16T03:36:51.056Z,79.82
2017-06-16T03:38:53.036Z,79.91
2017-06-16T03:40:54.946Z,79.34
2017-06-16T03:42:56.816Z,79.53
2017-06-16T03:44:58.754Z,79.72
2017-06-16T03:47:00.643Z,80.30
2017-06-16T03:49:02.478Z,80.20
2017-06-16T03:51:04.365Z,79.14
2017-06-16T03:53:06.347Z,79.53
2017-06-16T03:55:08.557Z,79.63
2017-06-16T03:57:10.911Z,79.44
2017-06-16T03:59:12.676Z,79.14
2017-06-16T04:01:14.555Z,78.90
2017-06-16T04:03:16.337Z,79.19
2017-06-16T04:05:18.249Z,79.09
2017-06-16T04:07:20.386Z,79.44
2017-06-16T04:09:22.181Z,79.63
2017-06-16T04:11:24.265Z,79.67
2017-06-16T04:13:26.061Z,79.76
2017-06-16T04:15:27.787Z,79.76
2017-06-16T04:17:29.637Z,79.19
2017-06-16T04:19:32.153Z,78.42
2017-06-16T04:21:34.203Z,78.61
2017-06-16T04:23:36.018Z,78.61
2017-06-16T04:25:38.388Z,78.99
2017-06-16T04:27:40.650Z,78.52
2017-06-16T04:29:42.469Z,78.99
2017-06-16T04:31:44.181Z,79.09
2017-06-16T04:33:46.540Z,79.47
2017-06-16T04:35:48.944Z,80.24
2017-06-16T04:37:50.698Z,79.57
2017-06-16T04:39:52.869Z,79.19
2017-06-16T04:41:54.718Z,79.28
2017-06-16T04:43:56.693Z,79.28
2017-06-16T04:45:58.482Z,78.80
2017-06-16T04:48:00.355Z,78.70
2017-06-16T04:50:02.097Z,78.90
2017-06-16T04:52:03.968Z,79.28
2017-06-16T04:54:05.885Z,79.47
2017-06-16T04:56:07.668Z,78.80
2017-06-16T04:58:09.406Z,78.84
2017-06-16T05:00:11.647Z,78.36
2017-06-16T05:02:13.573Z,77.59
2017-06-16T05:04:15.570Z,77.69
2017-06-16T05:06:17.290Z,77.78
2017-06-16T05:08:19.173Z,77.88
2017-06-16T05:10:21.620Z,77.31
2017-06-16T05:12:24.176Z,77.11
2017-06-16T05:14:26.055Z,77.59
2017-06-16T05:16:27.887Z,77.88
2017-06-16T05:18:29.665Z,78.08
2017-06-16T05:20:31.929Z,77.31
2017-06-16T05:22:33.785Z,77.50
2017-06-16T05:24:35.583Z,77.69
2017-06-16T05:26:37.461Z,77.88
2017-06-16T05:28:39.468Z,77.31
2017-06-16T05:30:41.261Z,76.96
2017-06-16T05:32:43.415Z,75.90
2017-06-16T05:34:45.800Z,75.71
2017-06-16T05:36:47.461Z,75.84
2017-06-16T05:38:49.298Z,75.23
2017-06-16T05:40:50.982Z,75.23
2017-06-16T05:42:52.762Z,75.62
2017-06-16T05:44:54.562Z,75.90
2017-06-16T05:46:56.647Z,75.65
2017-06-16T05:49:42.324Z,75.37
2017-06-16T05:51:43.985Z,75.81
2017-06-16T05:53:45.802Z,76.00
2017-06-16T05:55:47.758Z,76.48
2017-06-16T05:57:49.363Z,75.52
2017-06-16T05:59:51.190Z,75.71
2017-06-16T06:01:53.116Z,76.39
2017-06-16T06:04:35.639Z,76.67
2017-06-16T06:06:37.258Z,76.67
2017-06-16T06:08:38.737Z,76.96
2017-06-16T06:10:40.311Z,76.52
2017-06-16T06:12:41.947Z,75.46
2017-06-16T06:14:43.890Z,75.17
2017-06-16T06:16:46.719Z,74.40
2017-06-16T06:18:48.533Z,74.44
2017-06-16T06:20:50.425Z,74.15
2017-06-16T06:22:52.266Z,73.47
2017-06-16T06:24:53.971Z,73.09
2017-06-16T06:26:55.850Z,72.07
2017-06-16T06:28:58.574Z,72.07
2017-06-16T06:31:00.562Z,71.40
2017-06-16T06:33:02.272Z,70.24
2017-06-16T06:35:04.161Z,70.62
2017-06-16T06:37:06.086Z,70.43
2017-06-16T06:39:07.854Z,69.57
2017-06-16T06:41:09.766Z,69.76
2017-06-16T06:43:11.729Z,68.99
2017-06-16T06:45:13.624Z,68.54
2017-06-16T06:47:15.382Z,67.10
2017-06-16T06:49:17.187Z,64.18
2017-06-16T06:51:19.141Z,63.06
2017-06-16T06:53:21.055Z,61.03
2017-06-16T06:55:23.789Z,59.80
2017-06-16T06:57:26.990Z,59.13
2017-06-16T06:59:28.793Z,57.62
2017-06-16T07:01:30.917Z,53.06
2017-06-16T07:03:33.238Z,48.42
2017-06-16T07:05:35.288Z,46.89
2017-06-16T07:07:37.091Z,44.92
2017-06-16T07:09:39.422Z,44.10
2017-06-16T07:11:42.474Z,46.12
2017-06-16T07:13:44.335Z,47.84
2017-06-16T07:15:46.665Z,48.64
2017-06-16T07:17:49.659Z,51.10
2017-06-16T07:19:51.473Z,52.23
2017-06-16T07:22:34.067Z,54.02
2017-06-16T07:24:35.622Z,54.88
2017-06-16T07:26:37.820Z,54.88
2017-06-16T07:28:39.496Z,54.05
2017-06-16T07:30:41.335Z,53.15
2017-06-16T07:32:43.247Z,54.40
2017-06-16T07:34:45.100Z,54.72
2017-06-16T07:36:47.076Z,54.33
2017-06-16T07:38:49.602Z,53.85
2017-06-16T07:40:51.430Z,53.34
2017-06-16T07:42:53.462Z,53.34
2017-06-16T07:44:55.209Z,53.83
2017-06-16T07:46:57.863Z,55.44
2017-06-16T07:48:59.671Z,55.79
2017-06-16T07:51:01.556Z,56.59
2017-06-16T07:53:03.418Z,55.92
2017-06-16T07:55:05.119Z,55.92
2017-06-16T07:57:06.850Z,55.73
2017-06-16T07:59:08.653Z,52.35
2017-06-16T08:01:11.160Z,53.22
2017-06-16T08:03:13.067Z,53.41
2017-06-16T08:05:14.826Z,53.03
2017-06-16T08:07:16.875Z,53.53
2017-06-16T08:10:00.104Z,52.50
2017-06-16T08:12:01.738Z,49.60
2017-06-16T08:14:03.225Z,50.26
2017-06-16T08:16:05.109Z,50.86
2017-06-16T08:18:06.652Z,50.76
2017-06-16T08:20:08.810Z,49.60
2017-06-16T08:22:10.614Z,50.16
2017-06-16T08:24:12.569Z,50.74
2017-06-16T08:26:14.914Z,50.90
2017-06-16T08:28:16.763Z,50.88
2017-06-16T08:30:18.304Z,52.01
2017-06-16T08:32:20.038Z,52.40
2017-06-16T08:34:21.739Z,53.91
2017-06-16T08:36:23.863Z,53.98
2017-06-16T08:38:26.008Z,55.62
2017-06-16T08:40:27.645Z,56.90
2017-06-16T08:42:30.018Z,54.83
2017-06-16T08:44:33.408Z,54.35
2017-06-16T08:46:35.056Z,53.67
2017-06-16T08:48:37.085Z,51.97
2017-06-16T08:50:39.096Z,52.13
2017-06-16T08:52:40.861Z,51.92
2017-06-16T08:54:42.632Z,53.53
2017-06-16T08:56:44.723Z,52.18
2017-06-16T08:58:47.016Z,53.55
2017-06-16T09:00:48.692Z,53.62
2017-06-16T09:02:50.493Z,54.20
2017-06-16T09:04:53.023Z,55.81
2017-06-16T09:06:54.697Z,56.48
2017-06-16T09:08:56.546Z,57.92
2017-06-16T09:10:58.850Z,58.22
2017-06-16T09:13:00.653Z,57.25
2017-06-16T09:15:04.563Z,57.83
2017-06-16T09:17:06.960Z,57.73
2017-06-16T09:19:08.688Z,58.44
2017-06-16T09:21:10.677Z,56.54
2017-06-16T09:23:12.392Z,55.57
2017-06-16T09:25:13.904Z,55.83
2017-06-16T09:27:15.501Z,55.57
2017-06-16T09:29:17.436Z,55.96
2017-06-16T09:31:19.130Z,54.42
2017-06-16T09:33:21.421Z,53.81
2017-06-16T09:35:23.486Z,54.87
2017-06-16T09:37:26.998Z,54.58
2017-06-16T09:39:28.723Z,54.97
2017-06-16T09:41:30.596Z,54.20
2017-06-16T09:43:33.584Z,54.13
2017-06-16T09:45:35.406Z,54.30
2017-06-16T09:47:37.536Z,54.58
2017-06-16T09:49:39.747Z,54.94
2017-06-16T09:51:42.220Z,56.00
2017-06-16T09:53:44.316Z,54.56
2017-06-16T09:55:46.572Z,54.97
2017-06-16T09:57:48.693Z,54.87
2017-06-16T09:59:50.518Z,54.58
2017-06-16T10:01:52.455Z,52.75
2017-06-16T10:03:55.754Z,54.27
2017-06-16T10:05:57.474Z,54.94
2017-06-16T10:07:59.349Z,54.87
2017-06-16T10:10:01.934Z,54.75
2017-06-16T10:12:43.574Z,54.68
2017-06-16T10:14:45.151Z,55.81
2017-06-16T10:16:46.970Z,55.04
2017-06-16T10:18:48.631Z,54.30
2017-06-16T10:20:50.517Z,54.49
2017-06-16T10:22:52.385Z,53.65
2017-06-16T10:24:54.336Z,53.39
2017-06-16T10:26:59.549Z,53.48
2017-06-16T10:29:01.309Z,51.97
2017-06-16T16:20:33.624Z,48.13
2017-06-16T16:22:35.493Z,48.43
2017-06-16T16:24:36.842Z,48.43
2017-06-16T16:26:38.340Z,47.75
2017-06-16T16:28:39.764Z,47.75
2017-06-16T16:30:41.199Z,47.65
2017-06-16T16:32:42.636Z,47.56
2017-06-16T16:34:44.066Z,49.19
2017-06-16T16:36:45.594Z,48.02
2017-06-16T16:38:47.356Z,48.61
2017-06-16T16:40:50.336Z,49.48
2017-06-16T16:42:52.218Z,48.90
2017-06-16T16:44:55.179Z,49.38
2017-06-16T16:46:57.306Z,49.17
2017-06-16T16:48:59.204Z,49.17
2017-06-16T16:51:01.275Z,48.71
2017-06-16T16:53:02.936Z,48.90
2017-06-16T16:55:05.128Z,49.00
2017-06-16T16:57:06.790Z,49.48
2017-06-16T16:59:08.534Z,48.30
2017-06-16T17:01:10.230Z,49.55
2017-06-16T17:03:12.492Z,48.59
2017-06-16T17:05:14.396Z,49.27
2017-06-16T17:07:16.210Z,49.46
2017-06-16T17:09:18.127Z,49.84
2017-06-16T17:11:19.677Z,49.55
2017-06-16T17:13:21.180Z,49.27
2017-06-16T17:15:22.735Z,50.23
2017-06-16T17:17:24.210Z,50.61
2017-06-16T17:19:25.713Z,50.42
2017-06-16T17:21:27.252Z,50.83
2017-06-16T17:23:29.357Z,50.35
2017-06-16T17:25:32.040Z,50.42
2017-06-16T17:27:33.832Z,50.81
2017-06-16T17:29:35.694Z,50.61
2017-06-16T17:31:37.759Z,51.19
2017-06-16T17:33:40.392Z,51.38
2017-06-16T17:35:42.225Z,52.34
2017-06-16T17:37:44.140Z,51.38
2017-06-16T17:39:46.777Z,51.76
2017-06-16T17:41:49.198Z,51.67
2017-06-16T17:43:51.082Z,51.38
2017-06-16T17:45:53.717Z,52.06
2017-06-16T17:47:55.886Z,51.76
2017-06-16T17:49:57.915Z,51.38
2017-06-16T17:51:59.778Z,52.15
2017-06-16T17:54:01.494Z,52.34
2017-06-16T17:56:03.312Z,52.37
2017-06-16T17:58:05.193Z,52.27
2017-06-16T18:00:06.993Z,51.21
2017-06-16T18:02:08.988Z,51.41
2017-06-16T18:04:10.765Z,52.34
2017-06-16T18:06:13.026Z,52.06
2017-06-16T18:08:14.747Z,51.57
2017-06-16T18:10:17.268Z,52.34
2017-06-16T18:12:19.408Z,52.83
2017-06-16T18:14:21.131Z,53.02
2017-06-16T18:16:23.067Z,51.57
2017-06-16T18:18:24.841Z,52.06
2017-06-16T18:20:26.655Z,52.06
2017-06-16T18:22:28.559Z,51.76
2017-06-16T18:24:30.353Z,50.99
2017-06-16T18:26:32.162Z,50.90
2017-06-16T18:28:33.961Z,51.76
2017-06-16T18:30:35.714Z,51.48
2017-06-16T18:32:37.481Z,51.74
2017-06-16T18:34:39.329Z,52.03
2017-06-16T18:36:41.195Z,52.03
2017-06-16T18:38:42.981Z,52.12
2017-06-16T18:40:44.745Z,51.74
2017-06-16T18:42:46.770Z,52.61
2017-06-16T18:44:48.604Z,52.61
2017-06-16T18:46:51.160Z,52.99
2017-06-16T18:48:53.281Z,53.28
2017-06-16T18:50:55.061Z,52.70
2017-06-16T18:52:56.890Z,52.42
2017-06-16T18:54:58.896Z,53.28
2017-06-16T18:57:00.831Z,52.03
2017-06-16T18:59:02.484Z,52.22
2017-06-16T19:01:04.102Z,52.22
2017-06-16T19:03:05.625Z,52.42
2017-06-16T19:05:07.131Z,52.22
2017-06-16T19:07:09.706Z,52.32
2017-06-16T19:09:11.733Z,52.22
2017-06-16T19:11:13.390Z,52.32
2017-06-16T19:13:15.143Z,52.32
2017-06-16T19:15:16.792Z,52.63
2017-06-16T19:17:18.718Z,53.50
2017-06-16T19:19:20.498Z,52.70
2017-06-16T19:21:22.886Z,52.80
2017-06-16T19:23:24.832Z,52.99
2017-06-16T19:25:26.817Z,53.47
2017-06-16T19:27:29.568Z,53.47
2017-06-16T19:29:31.288Z,53.66
2017-06-16T19:31:33.190Z,53.57
2017-06-16T19:33:34.919Z,53.76
2017-06-16T19:35:36.522Z,54.05
2017-06-16T19:37:38.229Z,54.34
2017-06-16T19:39:39.733Z,54.24
2017-06-16T19:41:41.324Z,53.09
2017-06-16T19:43:43.141Z,52.89
2017-06-16T19:45:44.676Z,52.42
2017-06-16T19:47:46.284Z,52.87
2017-06-16T19:49:47.768Z,53.64
2017-06-16T19:51:49.291Z,53.16
2017-06-16T19:53:51.002Z,53.16
2017-06-16T19:56:00.201Z,52.77
2017-06-16T20:00:12.798Z,52.87
2017-06-16T20:02:14.869Z,52.97
2017-06-16T20:04:16.974Z,53.74
2017-06-16T20:06:19.057Z,53.35
2017-06-16T20:08:20.909Z,53.42
2017-06-16T20:10:22.679Z,53.61
2017-06-16T20:12:24.661Z,53.42
2017-06-16T20:14:26.831Z,52.94
2017-06-16T20:16:28.904Z,54.19
2017-06-16T20:18:31.789Z,54.38
2017-06-16T20:20:33.869Z,54.35
2017-06-16T20:22:35.998Z,54.45
2017-06-16T20:24:37.891Z,54.74
2017-06-16T20:26:39.782Z,54.74
2017-06-16T20:28:41.555Z,55.12
2017-06-16T20:30:43.563Z,55.60
2017-06-16T20:32:45.721Z,55.60
2017-06-16T20:34:47.484Z,55.69
2017-06-16T20:36:49.327Z,55.79
2017-06-16T20:38:51.087Z,55.60
2017-06-16T20:40:52.859Z,55.99
2017-06-16T20:42:55.092Z,55.69
2017-06-16T20:44:57.257Z,55.69
2017-06-16T20:46:59.047Z,55.51
2017-06-16T20:49:00.767Z,55.99
2017-06-16T20:51:02.503Z,56.53
2017-06-16T20:53:04.211Z,56.44
2017-06-16T20:55:06.556Z,57.04
2017-06-16T20:57:08.988Z,56.92
2017-06-16T20:59:10.468Z,57.01
2017-06-16T21:01:12.029Z,57.50
2017-06-16T21:03:13.565Z,57.78
2017-06-16T21:05:15.736Z,57.40
2017-06-16T21:07:17.407Z,57.59
2017-06-16T21:09:19.649Z,58.26
2017-06-16T21:11:21.990Z,58.36
2017-06-16T21:13:23.587Z,59.03
2017-06-16T21:15:25.372Z,58.84
2017-06-16T21:17:27.005Z,59.29
2017-06-16T21:19:29.127Z,59.19
2017-06-16T21:21:30.948Z,59.38
2017-06-16T21:23:32.646Z,59.29
2017-06-16T21:25:34.950Z,59.29
2017-06-16T21:27:36.752Z,59.77
2017-06-16T21:29:38.299Z,59.67
2017-06-16T21:31:39.854Z,59.96
2017-06-16T21:33:41.386Z,60.05
2017-06-16T21:35:42.949Z,59.77
2017-06-16T21:37:44.932Z,60.44
2017-06-16T21:39:46.731Z,60.25
2017-06-16T21:41:49.045Z,61.27
2017-06-16T21:43:51.298Z,61.85
2017-06-16T21:45:56.213Z,62.04
2017-06-16T21:47:58.692Z,62.62
2017-06-16T21:50:00.404Z,63.09
2017-06-16T21:52:02.675Z,63.19
2017-06-16T21:54:05.063Z,63.83
2017-06-16T21:56:07.407Z,63.64
2017-06-16T21:58:09.749Z,63.64
2017-06-16T22:00:11.958Z,63.92
2017-06-16T22:02:13.726Z,63.83
2017-06-16T22:04:15.480Z,63.64
2017-06-16T22:06:17.327Z,63.83
2017-06-16T22:08:19.544Z,64.12
2017-06-16T22:10:21.349Z,64.79
2017-06-16T22:12:23.494Z,65.05
2017-06-16T22:14:25.226Z,64.66
2017-06-16T22:16:27.576Z,65.05
2017-06-16T22:18:29.890Z,65.14
2017-06-16T22:20:31.575Z,65.81
2017-06-16T22:22:33.379Z,66.38
2017-06-16T22:24:35.757Z,66.38
2017-06-16T22:26:37.539Z,66.19
2017-06-16T22:28:39.478Z,65.91
2017-06-16T22:30:41.803Z,65.81
2017-06-16T22:32:43.512Z,65.91
2017-06-16T22:34:45.023Z,65.14
2017-06-16T22:36:46.679Z,64.85
2017-06-16T22:38:48.177Z,65.05
2017-06-16T22:40:50.346Z,65.52
2017-06-16T22:42:52.616Z,65.62
2017-06-16T22:44:54.338Z,66.00
2017-06-16T22:46:56.032Z,66.19
2017-06-16T22:48:57.774Z,65.91
2017-06-16T22:50:59.578Z,65.81
2017-06-16T22:53:02.020Z,65.62
2017-06-16T22:55:03.768Z,65.71
2017-06-16T22:57:05.430Z,65.81
2017-06-16T22:59:07.248Z,65.81
2017-06-16T23:01:10.398Z,66.09
2017-06-16T23:03:12.686Z,65.62
2017-06-16T23:05:14.430Z,66.38
2017-06-16T23:07:16.811Z,67.11
2017-06-16T23:09:19.059Z,66.74
2017-06-16T23:11:20.740Z,66.83
2017-06-16T23:13:22.970Z,67.50
2017-06-16T23:15:25.327Z,67.50
2017-06-16T23:17:27.732Z,67.31
2017-06-16T23:19:29.468Z,67.41
2017-06-16T23:21:31.747Z,66.83
2017-06-16T23:23:34.085Z,67.21
2017-06-16T23:25:36.427Z,67.79
2017-06-16T23:27:38.172Z,68.17
2017-06-16T23:29:40.333Z,67.88
2017-06-16T23:31:42.538Z,68.17
2017-06-16T23:33:44.165Z,68.33
2017-06-16T23:35:46.001Z,68.42
2017-06-16T23:37:47.758Z,69.19
2017-06-16T23:39:49.581Z,69.19
2017-06-16T23:41:51.348Z,69.57
2017-06-16T23:43:53.682Z,69.09
2017-06-16T23:45:56.016Z,69.76
2017-06-16T23:47:58.252Z,69.57
2017-06-16T23:49:59.786Z,69.95
2017-06-16T23:52:02.107Z,69.38
2017-06-16T23:54:03.759Z,69.48
2017-06-16T23:56:05.935Z,69.00
2017-06-16T23:58:08.178Z,68.74
